Time;durP1;ratioP1;P1;durP2;ratioP2;P2;SDS_P1;SDS_P2;PMS_P1;PMS_P2;Temp;Humidity;BMP_temperature;BMP_pressure;BME280_temperature;BME280_humidity;BME280_pressure;Samples;Min_cycle;Max_cycle;Signal;HPM_P1;HPM_P2
2022/04/14 00:00:46;;;;;;;23.50;18.42;;;15.50;99.90;;;15.83;70.83;101855.16;5075402;28;20052;-61
2022/04/14 00:03:14;;;;;;;21.88;18.27;;;15.50;99.90;;;15.87;70.63;101861.38;5076804;28;20075;-61
2022/04/14 00:05:43;;;;;;;20.48;18.15;;;15.50;99.90;;;15.81;70.60;101858.75;5076440;28;20041;-61
2022/04/14 00:08:11;;;;;;;25.73;18.40;;;15.50;99.90;;;15.80;70.64;101862.31;5076036;28;20498;-61
2022/04/14 00:10:39;;;;;;;24.63;18.75;;;15.50;99.90;;;15.78;70.33;101861.44;5076641;28;20105;-61
2022/04/14 00:13:08;;;;;;;27.10;18.70;;;15.50;99.90;;;15.73;70.67;101853.50;5076047;28;20127;-61
2022/04/14 00:15:38;;;;;;;23.73;17.90;;;15.40;99.90;;;15.60;70.61;101846.50;5075982;28;20437;-61
2022/04/14 00:18:07;;;;;;;24.95;17.88;;;15.40;99.90;;;15.64;70.68;101856.25;5075959;28;20045;-61
2022/04/14 00:20:35;;;;;;;25.70;18.08;;;15.30;99.90;;;15.57;70.68;101851.88;5076134;28;20036;-61
2022/04/14 00:23:03;;;;;;;24.60;17.60;;;15.30;99.90;;;15.52;70.85;101852.81;5075914;28;20474;-61
2022/04/14 00:25:32;;;;;;;27.17;18.50;;;15.20;99.90;;;15.52;70.84;101847.47;5075714;28;20120;-61
2022/04/14 00:28:01;;;;;;;22.58;18.40;;;15.20;99.90;;;15.46;70.90;101844.88;5075726;28;20044;-61
2022/04/14 00:30:29;;;;;;;25.13;18.73;;;15.20;99.90;;;15.42;71.17;101848.44;5057957;28;20044;-62
2022/04/14 00:32:59;;;;;;;26.33;18.75;;;15.10;99.90;;;15.25;71.34;101824.59;5075701;28;20037;-61
2022/04/14 00:35:28;;;;;;;25.30;17.73;;;15.10;99.90;;;15.35;71.54;101845.78;5075675;28;20048;-61
2022/04/14 00:37:56;;;;;;;23.45;17.90;;;15.10;99.90;;;15.33;71.65;101846.69;5075687;28;20056;-61
2022/04/14 00:40:25;;;;;;;24.25;19.10;;;15.00;99.90;;;15.28;71.55;101846.75;5075725;28;20048;-62
2022/04/14 00:42:53;;;;;;;25.50;18.77;;;15.00;99.90;;;15.31;71.60;101845.84;5075552;28;20497;-61
2022/04/14 00:45:22;;;;;;;24.80;18.35;;;15.00;99.90;;;15.33;71.46;101842.25;5075748;28;20040;-61
2022/04/14 00:47:52;;;;;;;23.33;18.30;;;15.00;99.90;;;15.27;71.34;101825.44;5075959;28;20438;-62
2022/04/14 00:50:22;;;;;;;24.90;18.88;;;15.10;99.90;;;15.24;71.71;101837.00;5075429;28;20391;-62
2022/04/14 00:52:50;;;;;;;25.60;20.13;;;15.00;99.90;;;15.20;71.69;101843.25;5075660;28;20049;-61
2022/04/14 00:55:18;;;;;;;27.13;19.95;;;14.90;99.90;;;15.14;72.18;101848.63;5057621;28;20053;-62
2022/04/14 00:57:47;;;;;;;27.10;19.20;;;14.90;99.90;;;15.11;72.27;101846.00;5075501;28;20048;-61
2022/04/14 01:00:15;;;;;;;26.17;19.92;;;14.90;99.90;;;15.05;72.54;101846.03;5075250;28;20474;-61
2022/04/14 01:02:45;;;;;;;30.42;19.88;;;14.80;99.90;;;15.01;72.46;101841.63;5075205;28;20127;-61
2022/04/14 01:05:13;;;;;;;29.02;20.30;;;14.70;99.90;;;14.90;72.65;101829.28;5075108;28;20120;-61
2022/04/14 01:07:45;;;;;;;25.38;19.88;;;14.70;99.90;;;14.97;72.53;101850.53;5075016;28;20040;-61
2022/04/14 01:10:14;;;;;;;28.42;20.02;;;14.70;99.90;;;14.93;72.61;101848.78;5075324;28;20119;-61
2022/04/14 01:12:42;;;;;;;27.25;20.17;;;14.60;99.90;;;14.83;72.77;101841.75;5074958;28;20557;-62
2022/04/14 01:15:13;;;;;;;26.10;20.52;;;14.60;99.90;;;14.91;72.80;101849.69;5075004;28;20048;-61
2022/04/14 01:17:42;;;;;;;25.48;20.58;;;14.60;99.90;;;14.93;72.83;101854.13;5074919;28;20426;-61
2022/04/14 01:20:13;;;;;;;26.95;21.08;;;14.60;99.90;;;14.78;72.82;101826.69;5074866;28;20056;-61
2022/04/14 01:22:48;;;;;;;26.85;21.25;;;14.60;99.90;;;14.94;73.02;101850.53;5074800;28;20036;-61
2022/04/14 01:25:18;;;;;;;29.08;22.35;;;14.60;99.90;;;14.89;73.09;101852.38;5075342;28;20079;-61
2022/04/14 01:27:46;;;;;;;30.90;22.27;;;14.60;99.90;;;14.86;73.23;101847.06;5074831;28;20053;-61
2022/04/14 01:30:15;;;;;;;32.55;21.77;;;14.60;99.90;;;14.91;73.01;101863.00;5074955;28;20044;-61
2022/04/14 01:32:43;;;;;;;28.85;22.90;;;14.60;99.90;;;14.84;73.27;101854.19;5074617;28;20045;-61
2022/04/14 01:35:11;;;;;;;31.42;22.70;;;14.60;99.90;;;14.88;73.22;101855.94;5074448;28;20052;-61
2022/04/14 01:37:40;;;;;;;30.85;22.90;;;14.60;99.90;;;14.91;73.39;101861.22;5073418;28;20445;-61
2022/04/14 01:40:10;;;;;;;31.33;22.88;;;14.60;99.90;;;14.86;73.34;101863.06;5074711;28;20086;-61
2022/04/14 01:42:40;;;;;;;29.35;22.05;;;14.60;99.90;;;14.85;73.56;101863.03;5074359;28;20060;-61
2022/04/14 01:45:11;;;;;;;28.70;22.95;;;14.60;99.90;;;14.86;73.34;101859.50;5074409;28;20086;-61
2022/04/14 01:47:40;;;;;;;;;;;14.60;99.90;;;14.80;73.97;101863.09;5074617;28;20045;-61
2022/04/14 01:50:10;;;;;;;28.33;21.15;;;14.60;99.90;;;14.82;73.72;101863.06;5056605;28;19921;-61
2022/04/14 01:52:39;;;;;;;27.42;22.08;;;14.50;99.90;;;14.79;73.87;101866.63;5073875;28;20052;-61
2022/04/14 01:55:09;;;;;;;28.73;22.50;;;14.50;99.90;;;14.78;74.15;101861.31;5056435;28;20052;-61
2022/04/14 01:57:39;;;;;;;30.38;22.48;;;14.50;99.90;;;14.75;73.99;101864.88;5074669;28;20359;-61
2022/04/14 02:00:10;;;;;;;29.40;21.83;;;14.50;99.90;;;14.73;74.05;101866.66;5074605;28;20097;-61
2022/04/14 02:02:40;;;;;;;30.13;23.00;;;14.40;99.90;;;14.73;74.05;101874.66;5074032;28;20048;-62
2022/04/14 02:05:10;;;;;;;31.25;21.85;;;14.40;99.90;;;14.63;74.38;101880.94;5074311;28;20045;-61
2022/04/14 02:07:38;;;;;;;28.70;20.73;;;14.40;99.90;;;14.56;74.99;101867.63;5073781;28;20051;-61
2022/04/14 02:10:08;;;;;;;29.92;21.75;;;14.30;99.90;;;14.58;74.89;101873.84;5056030;28;20048;-62
2022/04/14 02:12:36;;;;;;;25.85;19.55;;;14.30;99.90;;;14.43;75.05;101866.81;5073804;28;20045;-61
2022/04/14 02:15:07;;;;;;;19.27;16.60;;;14.20;99.90;;;14.27;75.81;101878.38;5074279;28;20064;-61
2022/04/14 02:17:35;;;;;;;;;;;14.00;99.90;;;14.12;76.64;101873.09;5074199;28;20041;-61
2022/04/14 02:20:05;;;;;;;17.55;15.25;;;13.80;99.90;;;14.01;77.39;101870.50;5074206;28;19920;-61
2022/04/14 02:22:39;;;;;;;30.02;21.48;;;13.70;99.90;;;13.98;77.79;101870.47;5073594;28;20549;-61
2022/04/14 02:25:09;;;;;;;17.92;14.75;;;13.70;99.90;;;13.95;77.46;101869.59;5073547;28;20048;-62
2022/04/14 02:27:38;;;;;;;32.97;23.75;;;13.60;99.90;;;13.87;77.92;101869.63;5074108;28;20037;-65
2022/04/14 02:30:09;;;;;;;20.95;17.42;;;13.50;99.90;;;13.83;78.25;101866.97;5073404;28;20044;-64
2022/04/14 02:32:38;;;;;;;31.70;22.23;;;13.50;99.90;;;13.87;78.01;101866.97;5073780;28;20465;-63
2022/04/14 02:35:07;;;;;;;29.35;22.50;;;13.50;99.90;;;13.90;78.06;101869.59;5073377;28;20466;-64
2022/04/14 02:37:36;;;;;;;32.72;23.38;;;13.50;99.90;;;13.90;77.84;101872.25;5073673;28;20131;-64
2022/04/14 02:40:06;;;;;;;31.63;23.50;;;13.50;99.90;;;13.89;77.41;101872.28;5073608;28;20044;-61
2022/04/14 02:42:34;;;;;;;33.13;23.67;;;13.50;99.90;;;13.93;77.59;101874.03;5073888;28;20044;-61
2022/04/14 02:45:03;;;;;;;28.33;20.63;;;13.50;99.90;;;13.84;77.81;101872.28;5073593;28;20039;-61
2022/04/14 02:47:35;;;;;;;29.90;21.60;;;13.50;99.90;;;13.79;77.91;101867.84;5073683;28;20040;-61
2022/04/14 02:50:04;;;;;;;28.20;22.63;;;13.40;99.90;;;13.79;78.26;101878.47;5073270;28;20044;-61
2022/04/14 02:52:32;;;;;;;26.70;21.38;;;13.40;99.90;;;13.85;77.93;101870.50;5073197;28;20044;-61
2022/04/14 02:55:00;;;;;;;30.52;23.15;;;13.50;99.90;;;13.87;77.76;101868.72;5073404;28;20052;-61
2022/04/14 02:57:30;;;;;;;29.55;23.40;;;13.50;99.90;;;13.86;77.90;101866.97;5073117;28;20490;-61
2022/04/14 02:59:59;;;;;;;34.20;25.23;;;13.50;99.90;;;13.96;77.60;101866.03;5073401;28;20040;-61
2022/04/14 03:02:27;;;;;;;33.25;23.65;;;13.60;99.90;;;13.84;77.23;101843.00;5073052;28;20048;-61
2022/04/14 03:04:58;;;;;;;34.75;25.05;;;13.60;99.90;;;14.04;77.46;101869.56;5072708;28;20064;-61
2022/04/14 03:07:27;;;;;;;32.78;23.60;;;13.60;99.90;;;14.04;77.28;101866.91;5073034;28;20051;-61
2022/04/14 03:09:55;;;;;;;29.25;24.33;;;13.80;99.90;;;13.94;77.05;101847.44;5073156;28;20056;-61
2022/04/14 03:12:23;;;;;;;32.63;23.63;;;13.80;99.90;;;13.98;76.90;101857.19;5072952;28;20121;-61
2022/04/14 03:14:52;;;;;;;34.25;24.75;;;13.80;99.90;;;14.07;76.78;101874.91;5072922;28;20071;-61
2022/04/14 03:17:20;;;;;;;31.00;23.17;;;13.80;99.90;;;14.04;76.67;101872.22;5055127;28;20052;-61
2022/04/14 03:19:49;;;;;;;30.98;23.60;;;13.80;99.90;;;14.03;76.85;101875.78;5055184;28;20513;-61
2022/04/14 03:22:18;;;;;;;32.65;23.60;;;13.80;99.90;;;13.87;76.69;101836.81;5072890;28;20052;-61
2022/04/14 03:24:47;;;;;;;31.02;23.80;;;13.80;99.90;;;13.99;76.52;101884.66;5055041;28;20056;-61
2022/04/14 03:27:15;;;;;;;30.88;22.75;;;13.80;99.90;;;13.96;76.70;101880.22;5072781;28;20045;-61
2022/04/14 03:29:45;;;;;;;36.13;25.08;;;13.70;99.90;;;13.89;76.79;101877.59;5072768;28;20090;-61
2022/04/14 03:32:14;;;;;;;32.25;24.85;;;13.70;99.90;;;13.96;76.53;101874.91;5072820;28;20483;-62
2022/04/14 03:34:42;;;;;;;35.28;24.40;;;13.70;99.90;;;13.92;76.42;101878.47;5072732;28;20405;-61
2022/04/14 03:37:10;;;;;;;32.97;24.58;;;13.70;99.90;;;13.95;76.60;101888.22;5072690;28;20060;-61
2022/04/14 03:39:40;;;;;;;32.53;25.65;;;13.70;99.90;;;13.81;77.00;101903.31;5072765;28;20044;-61
2022/04/14 03:42:09;;;;;;;31.77;25.13;;;13.50;99.90;;;13.75;77.14;101904.22;5072977;28;20475;-62
2022/04/14 03:44:37;;;;;;;32.95;23.98;;;13.50;99.90;;;13.76;77.45;101887.38;5073169;28;20405;-61
2022/04/14 03:47:07;;;;;;;36.10;25.77;;;13.40;99.90;;;13.72;77.62;101885.59;5072887;28;20040;-61
2022/04/14 03:49:37;;;;;;;35.25;25.10;;;13.40;99.90;;;13.75;77.31;101888.25;5072818;28;20505;-61
2022/04/14 03:52:07;;;;;;;31.63;23.90;;;13.40;99.90;;;13.57;77.71;101904.19;5072837;28;20421;-61
2022/04/14 03:54:35;;;;;;;32.17;24.57;;;13.30;99.90;;;13.51;78.15;101893.59;5071537;28;20707;-61
2022/04/14 03:57:06;;;;;;;30.40;24.23;;;13.20;99.90;;;13.54;78.26;101885.59;5072502;28;20340;-61
2022/04/14 03:59:34;;;;;;;31.33;23.52;;;13.20;99.90;;;13.48;78.26;101890.91;5072575;28;20683;-61
2022/04/14 04:02:03;;;;;;;29.38;22.08;;;13.20;99.90;;;13.40;78.78;101890.03;5072346;28;20067;-61
2022/04/14 04:04:32;;;;;;;24.58;19.52;;;13.10;99.90;;;13.28;78.79;101896.22;5072359;28;20048;-61
2022/04/14 04:07:01;;;;;;;32.35;23.15;;;13.00;99.90;;;13.30;79.01;101890.91;5072630;28;20444;-62
2022/04/14 04:09:32;;;;;;;33.25;25.30;;;12.90;99.90;;;13.34;78.87;101895.34;5072244;28;20120;-61
2022/04/14 04:12:00;;;;;;;31.42;24.45;;;13.00;99.90;;;13.27;78.73;101888.25;5072387;28;20037;-61
2022/04/14 04:14:30;;;;;;;25.90;20.55;;;12.90;99.90;;;13.12;78.85;101875.84;5054617;28;20485;-61
2022/04/14 04:17:01;;;;;;;28.52;20.70;;;12.90;99.90;;;13.09;79.06;101890.88;5076294;28;20102;-61
2022/04/14 04:19:29;;;;;;;33.17;22.00;;;12.80;99.90;;;13.12;79.16;101897.09;5075877;28;20082;-61
2022/04/14 04:21:57;;;;;;;29.13;22.05;;;12.80;99.90;;;13.24;78.88;101899.75;5058449;28;20048;-61
2022/04/14 04:24:26;;;;;;;30.83;23.00;;;12.80;99.90;;;13.23;78.91;101898.00;5076081;28;20044;-61
2022/04/14 04:26:54;;;;;;;34.33;23.10;;;12.90;99.90;;;13.12;78.69;101870.53;5076386;28;20095;-61
2022/04/14 04:29:23;;;;;;;30.95;23.77;;;12.90;99.90;;;13.33;78.53;101894.47;5076007;28;20065;-61
2022/04/14 04:31:52;;;;;;;34.65;23.50;;;13.00;99.90;;;13.35;78.44;101898.00;5076041;28;20094;-61
2022/04/14 04:34:21;;;;;;;31.27;23.93;;;13.00;99.90;;;13.28;78.42;101888.25;5075769;28;20054;-61
2022/04/14 04:36:49;;;;;;;36.10;25.60;;;13.10;99.90;;;13.38;78.12;101903.31;5075799;28;20394;-61
2022/04/14 04:39:18;;;;;;;35.92;25.13;;;13.10;99.90;;;13.39;78.20;101907.72;5075994;28;20127;-61
2022/04/14 04:41:46;;;;;;;34.05;25.15;;;13.10;99.90;;;13.46;78.22;101912.19;5075864;28;20486;-61
2022/04/14 04:44:14;;;;;;;32.28;24.05;;;13.20;99.90;;;13.43;78.20;101933.44;5075872;28;20150;-61
2022/04/14 04:46:43;;;;;;;39.30;24.25;;;13.20;99.90;;;13.44;78.13;101913.97;5075537;28;20064;-61
2022/04/14 04:49:13;;;;;;;36.10;25.08;;;13.10;99.90;;;13.38;78.16;101911.28;5075579;28;20040;-61
2022/04/14 04:51:42;;;;;;;32.78;24.45;;;13.10;99.90;;;13.41;78.37;101913.94;5075732;28;20461;-61
2022/04/14 04:54:10;;;;;;;32.25;25.02;;;13.10;99.90;;;13.34;78.15;101922.81;5075314;28;20440;-61
2022/04/14 04:56:38;;;;;;;34.35;24.52;;;13.20;99.90;;;13.51;77.87;101918.38;5075275;28;20055;-61
2022/04/14 04:59:08;;;;;;;32.85;23.63;;;13.20;99.90;;;13.47;77.61;101919.25;5075286;28;20040;-61
2022/04/14 05:01:36;;;;;;;31.30;23.42;;;13.20;99.90;;;13.47;77.77;101915.75;5075722;28;20048;-61
2022/04/14 05:04:05;;;;;;;31.00;23.15;;;13.20;99.90;;;13.44;77.79;101916.63;5075308;28;20398;-61
2022/04/14 05:06:35;;;;;;;28.75;21.40;;;13.30;99.90;;;13.42;77.49;101930.78;5075325;28;20119;-61
2022/04/14 05:09:03;;;;;;;30.10;21.33;;;13.10;99.90;;;13.37;77.55;101930.81;5075257;28;20051;-61
2022/04/14 05:11:32;;;;;;;28.08;21.90;;;13.10;99.90;;;13.32;77.58;101926.34;5075500;28;20055;-61
2022/04/14 05:14:01;;;;;;;30.35;21.98;;;13.10;99.90;;;13.31;77.65;101930.78;5057488;28;20044;-64
2022/04/14 05:16:30;;;;;;;32.20;22.10;;;13.00;99.90;;;13.21;77.78;101929.00;5074913;28;20041;-63
2022/04/14 05:18:58;;;;;;;31.98;21.75;;;13.00;99.90;;;12.48;78.01;101812.84;5074771;28;20446;-64
2022/04/14 05:21:27;;;;;;;30.27;21.67;;;12.90;99.90;;;13.16;78.41;101935.19;5075129;28;20131;-64
2022/04/14 05:24:00;;;;;;;31.92;22.10;;;12.80;99.90;;;13.27;78.09;101934.31;5074835;28;20063;-64
2022/04/14 05:26:28;;;;;;;32.03;22.60;;;13.00;99.90;;;13.43;77.88;101948.53;5074373;28;20053;-64
2022/04/14 05:28:56;;;;;;;31.88;22.17;;;13.10;99.90;;;13.52;77.58;101940.53;5074398;28;20652;-61
2022/04/14 05:31:25;;;;;;;29.67;22.80;;;13.20;99.90;;;13.62;77.19;101946.75;5074572;28;20467;-61
2022/04/14 05:33:53;;;;;;;35.55;23.80;;;13.30;99.90;;;13.65;77.03;101938.75;5075105;28;20048;-61
2022/04/14 05:36:22;;;;;;;33.45;23.92;;;13.40;99.90;;;13.05;76.99;101820.03;5074480;28;20102;-63
2022/04/14 05:38:50;;;;;;;37.55;22.63;;;13.40;99.90;;;13.79;76.85;101950.28;5074788;28;20060;-63
2022/04/14 05:41:20;;;;;;;35.47;24.15;;;13.50;99.90;;;13.92;77.10;101950.28;5074573;28;20090;-64
2022/04/14 05:43:48;;;;;;;33.57;23.40;;;13.60;99.90;;;14.01;76.64;101955.63;5074383;28;20041;-64
2022/04/14 05:46:17;;;;;;;29.02;22.15;;;13.80;99.90;;;14.10;76.50;101949.38;5056748;28;20109;-64
2022/04/14 05:48:45;;;;;;;31.38;22.80;;;13.90;99.90;;;14.28;76.09;101954.72;5074711;28;20109;-64
2022/04/14 05:51:14;;;;;;;31.38;22.95;;;14.00;99.90;;;14.51;75.48;101950.22;5073953;28;20084;-64
2022/04/14 05:53:42;;;;;;;36.08;23.25;;;14.20;99.90;;;14.73;74.96;101964.34;5074093;28;20138;-64
2022/04/14 05:56:13;;;;;;;41.65;22.77;;;14.40;99.90;;;14.96;74.29;101960.66;5074401;28;20044;-64
2022/04/14 05:58:42;;;;;;;;;;;14.60;99.90;;;15.18;73.79;101964.09;5074744;28;20048;-64
2022/04/14 06:01:11;;;;;;;32.47;23.85;;;15.00;99.90;;;15.39;72.86;101970.19;5074132;28;20011;-65
2022/04/14 06:03:40;;;;;;;31.60;22.75;;;15.10;99.90;;;15.55;72.48;101965.69;5073977;28;20037;-64
2022/04/14 06:06:10;;;;;;;31.98;22.77;;;15.30;99.90;;;15.80;71.82;101971.69;5074102;28;20040;-64
2022/04/14 06:08:38;;;;;;;33.17;22.38;;;15.50;99.90;;;15.87;71.19;101971.63;5073807;28;20036;-64
2022/04/14 06:11:07;;;;;;;31.25;22.35;;;15.60;99.90;;;15.97;71.44;101981.34;5073720;28;20067;-64
2022/04/14 06:13:36;;;;;;;33.00;22.50;;;15.60;99.90;;;16.25;70.34;101973.97;5073731;28;20429;-64
2022/04/14 06:16:07;;;;;;;31.05;21.73;;;15.90;99.90;;;16.49;69.62;101971.06;5073652;28;20094;-64
2022/04/14 06:18:35;;;;;;;32.50;22.05;;;16.10;99.90;;;16.56;69.20;101971.88;5072767;28;20040;-64
2022/04/14 06:21:04;;;;;;;26.77;21.02;;;16.20;99.90;;;16.52;69.39;101971.03;5073872;28;20101;-62
2022/04/14 06:23:32;;;;;;;33.85;21.50;;;16.20;99.90;;;16.63;69.26;101974.47;5073430;28;20040;-62
2022/04/14 06:26:01;;;;;;;31.33;21.75;;;16.30;99.90;;;16.60;69.23;101971.84;5073684;28;20044;-62
2022/04/14 06:28:29;;;;;;;32.45;21.50;;;16.30;99.90;;;16.64;69.62;101973.59;5073524;28;20048;-62
2022/04/14 06:30:58;;;;;;;26.95;20.35;;;16.30;99.90;;;16.77;69.93;101977.88;5055599;28;20040;-63
2022/04/14 06:33:30;;;;;;;31.13;20.35;;;16.40;99.90;;;16.96;69.47;101976.75;5073407;28;20071;-62
2022/04/14 06:35:59;;;;;;;32.03;20.80;;;16.60;99.90;;;16.82;69.34;101951.97;5073413;28;20418;-64
2022/04/14 06:38:28;;;;;;;28.48;20.98;;;16.60;99.90;;;17.28;68.82;101979.00;5072994;28;20061;-58
2022/04/14 06:40:56;;;;;;;29.50;19.92;;;16.90;99.90;;;17.57;68.33;101981.25;5073304;28;20490;-58
2022/04/14 06:43:25;;;;;;;40.15;19.20;;;17.20;99.90;;;17.52;68.56;101989.34;5073457;28;20406;-58
2022/04/14 06:45:54;;;;;;;33.97;20.70;;;17.20;99.90;;;17.27;69.13;101989.69;5073216;28;20127;-58
2022/04/14 06:48:22;;;;;;;24.77;17.73;;;17.00;99.90;;;17.26;69.03;101990.59;5073684;28;20068;-58
2022/04/14 06:50:52;;;;;;;29.35;18.58;;;16.90;99.90;;;17.16;69.26;101992.53;5073241;28;20052;-58
2022/04/14 06:53:20;;;;;;;23.57;17.70;;;16.80;99.90;;;17.15;69.45;101993.41;5073391;28;20048;-58
2022/04/14 06:55:49;;;;;;;25.40;17.40;;;16.80;99.90;;;17.13;70.44;101996.09;5055316;28;20056;-58
2022/04/14 06:58:18;;;;;;;28.75;17.92;;;16.80;99.90;;;16.99;70.25;102005.22;5072558;28;20049;-58
2022/04/14 07:00:46;;;;;;;25.17;18.85;;;16.70;99.90;;;16.96;70.28;101995.44;5054756;28;20105;-58
2022/04/14 07:03:15;;;;;;;26.77;18.30;;;16.70;99.90;;;16.98;70.43;102003.44;5072975;28;20044;-58
2022/04/14 07:05:43;;;;;;;29.10;18.73;;;16.60;99.90;;;16.95;71.01;102006.16;5072977;28;20554;-58
2022/04/14 07:08:13;;;;;;;31.80;19.38;;;16.70;99.90;;;16.91;71.17;102005.31;5072905;28;20052;-57
2022/04/14 07:10:41;;;;;;;27.10;19.37;;;16.60;99.90;;;17.09;70.77;102002.41;5073357;28;20045;-58
2022/04/14 07:13:11;;;;;;;28.38;19.80;;;16.80;99.90;;;17.33;70.19;102011.00;5073442;28;20123;-57
2022/04/14 07:15:40;;;;;;;27.70;18.63;;;17.00;99.90;;;17.48;69.85;102011.69;5071957;28;20075;-58
2022/04/14 07:18:08;;;;;;;29.40;17.80;;;17.10;99.90;;;17.50;69.77;102009.03;5072934;28;20086;-58
2022/04/14 07:20:37;;;;;;;25.05;17.77;;;17.20;99.90;;;17.51;68.80;102013.47;5055296;28;20071;-58
2022/04/14 07:23:06;;;;;;;28.92;18.85;;;17.20;99.90;;;17.28;69.23;102013.75;5055160;28;20513;-57
2022/04/14 07:25:36;;;;;;;28.45;17.10;;;17.00;99.90;;;17.33;69.60;102016.34;5073146;28;20072;-57
2022/04/14 07:28:05;;;;;;;25.13;18.50;;;17.00;99.90;;;17.68;69.33;102022.13;5072784;28;20387;-58
2022/04/14 07:30:34;;;;;;;24.92;17.88;;;17.30;99.90;;;17.85;69.00;102020.06;5072729;28;20838;-58
2022/04/14 07:33:02;;;;;;;27.55;18.45;;;17.50;99.90;;;18.14;68.07;102016.94;5072874;28;20724;-61
2022/04/14 07:35:32;;;;;;;29.98;19.08;;;17.80;99.90;;;18.26;67.54;102022.94;5072669;28;20409;-58
2022/04/14 07:38:01;;;;;;;26.25;17.15;;;17.90;99.90;;;18.63;66.95;102021.41;5072883;28;20139;-59
2022/04/14 07:40:29;;;;;;;26.25;17.75;;;18.30;99.90;;;18.78;66.54;102028.25;5072830;28;20052;-58
2022/04/14 07:42:59;;;;;;;23.60;17.98;;;18.50;99.90;;;18.36;65.53;101933.47;5072730;28;20044;-58
2022/04/14 07:45:28;;;;;;;24.58;17.05;;;18.60;99.90;;;19.10;64.97;102024.94;5072731;28;20040;-58
2022/04/14 07:47:56;;;;;;;26.92;16.88;;;18.80;99.90;;;19.24;64.41;102034.44;5072634;28;20075;-57
2022/04/14 07:50:25;;;;;;;25.08;17.27;;;18.90;99.90;;;19.14;64.83;102034.69;5074378;28;20045;-58
2022/04/14 07:52:55;;;;;;;27.48;17.33;;;18.90;99.90;;;19.30;64.62;102039.66;5076772;28;20086;-58
2022/04/14 07:55:27;;;;;;;24.33;17.52;;;19.00;99.90;;;19.29;63.84;102042.41;5076842;28;20231;-58
2022/04/14 07:58:00;;;;;;;27.00;17.20;;;19.00;99.90;;;19.35;63.80;102037.81;5076094;28;20049;-58
2022/04/14 08:00:28;;;;;;;29.38;17.83;;;19.10;99.90;;;19.60;63.35;102032.78;5076404;28;20075;-59
2022/04/14 08:02:58;;;;;;;25.75;17.13;;;19.30;99.90;;;19.80;62.80;102035.91;5058279;28;20064;-59
2022/04/14 08:05:31;;;;;;;26.42;17.85;;;19.50;99.90;;;19.92;62.10;102035.59;5076355;28;20474;-58
2022/04/14 08:08:00;;;;;;;24.38;15.68;;;19.70;99.90;;;19.96;61.32;102031.91;5076791;28;20043;-57
2022/04/14 08:10:29;;;;;;;22.15;15.60;;;19.70;99.90;;;19.83;61.68;102014.34;5075993;28;20132;-58
2022/04/14 08:12:59;;;;;;;22.50;16.08;;;19.70;99.90;;;20.05;62.31;102031.69;5076047;28;20110;-58
2022/04/14 08:15:29;;;;;;;25.05;15.68;;;19.80;99.90;;;20.36;61.80;102030.00;5076553;28;20048;-58
2022/04/14 08:17:58;;;;;;;25.23;17.47;;;20.00;99.90;;;20.70;60.52;102027.31;5076252;28;20048;-66
2022/04/14 08:20:28;;;;;;;24.65;16.02;;;20.40;99.90;;;20.73;59.34;102026.34;5076102;28;20383;-64
2022/04/14 08:22:59;;;;;;;26.90;17.60;;;20.50;99.90;;;20.80;59.60;102033.31;5075966;28;20098;-63
2022/04/14 08:25:31;;;;;;;28.23;15.95;;;20.50;99.90;;;20.88;59.31;102012.47;5076100;28;20056;-62
2022/04/14 08:28:03;;;;;;;23.08;16.23;;;20.80;99.90;;;20.86;59.14;102030.44;5075940;28;20053;-62
2022/04/14 08:30:34;;;;;;;22.98;14.98;;;20.70;99.90;;;21.26;59.06;102033.78;5058100;28;20494;-62
2022/04/14 08:33:06;;;;;;;21.30;14.68;;;21.00;99.90;;;21.34;58.30;102037.13;5075821;28;20052;-62
2022/04/14 08:35:36;;;;;;;23.38;15.60;;;21.20;99.90;;;21.74;57.65;102045.72;5076376;28;20075;-62
2022/04/14 08:38:07;;;;;;;21.20;14.48;;;21.50;99.90;;;21.99;56.54;102035.97;5075487;28;20110;-62
2022/04/14 08:40:37;;;;;;;;;;;21.70;99.90;;;21.81;56.13;102030.31;5076389;28;20037;-62
2022/04/14 08:43:19;;;;;;;22.10;14.25;;;21.70;99.90;;;21.78;56.74;102025.84;5058023;28;20364;-62
2022/04/14 08:45:49;;;;;;;19.98;13.93;;;21.60;99.90;;;22.07;56.00;102019.53;5075605;28;20094;-62
2022/04/14 08:48:20;;;;;;;21.00;13.80;;;21.70;99.90;;;22.10;55.74;102014.94;5075484;28;20494;-62
2022/04/14 08:50:50;;;;;;;20.90;13.82;;;21.90;99.90;;;22.04;56.41;102017.84;5075697;28;20045;-63
2022/04/14 08:53:19;;;;;;;21.42;13.50;;;21.80;99.90;;;22.01;56.48;102015.22;5075502;28;20059;-63
2022/04/14 08:55:49;;;;;;;23.15;14.05;;;21.80;99.90;;;22.19;55.81;102017.31;5075505;28;20045;-63
2022/04/14 08:58:26;;;;;;;23.20;13.75;;;22.00;99.90;;;22.41;55.91;102017.47;5075588;28;20048;-63
2022/04/14 09:00:55;;;;;;;17.75;12.32;;;22.20;99.90;;;22.59;55.92;102010.59;5057445;28;20060;-63
2022/04/14 09:03:44;;;;;;;20.17;12.70;;;22.40;99.90;;;22.23;55.31;101940.78;5074922;28;20131;-62
2022/04/14 09:06:14;;;;;;;16.55;12.32;;;22.50;99.90;;;22.80;54.82;102015.19;5075135;28;20047;-62
2022/04/14 09:08:44;;;;;;;14.32;12.05;;;22.50;99.90;;;22.95;54.33;102025.44;5075634;28;20440;-63
2022/04/14 09:11:12;;;;;;;18.80;12.40;;;22.70;99.90;;;23.22;53.70;102025.28;5075035;28;20045;-63
2022/04/14 09:13:44;;;;;;;19.08;13.15;;;23.00;99.90;;;23.35;52.68;102033.81;5075023;28;20037;-63
2022/04/14 09:16:13;;;;;;;16.90;11.73;;;23.10;99.90;;;23.33;53.68;102040.19;5075340;28;20048;-63
2022/04/14 09:18:41;;;;;;;17.13;11.68;;;23.20;99.90;;;23.55;53.12;102050.13;5074969;28;20053;-63
2022/04/14 09:21:10;;;;;;;15.40;11.18;;;23.30;99.90;;;23.71;53.06;102056.66;5074866;28;20040;-63
2022/04/14 09:23:38;;;;;;;21.45;11.57;;;23.40;99.90;;;23.85;51.95;102051.59;5075115;28;20064;-63
2022/04/14 09:26:11;;;;;;;15.57;11.93;;;23.60;99.90;;;23.68;52.02;102054.09;5074821;28;20040;-63
2022/04/14 09:28:42;;;;;;;18.23;12.65;;;23.50;99.90;;;23.78;52.03;102063.63;5074989;28;20078;-64
2022/04/14 09:31:11;;;;;;;;;;;23.60;99.90;;;23.77;52.25;102085.31;5075054;28;20052;-63
2022/04/14 09:33:48;;;;;;;18.40;11.23;;;23.60;99.90;;;23.88;50.72;102074.94;5074600;28;19943;-63
2022/04/14 09:36:19;;;;;;;13.48;11.07;;;23.60;99.90;;;23.76;51.08;102070.91;5074727;28;20485;-63
2022/04/14 09:38:58;;;;;;;;;;;23.60;99.90;;;23.47;50.91;102064.88;5075116;28;20048;-64
2022/04/14 09:41:35;;;;;;;16.23;11.38;;;23.40;99.90;;;23.21;51.76;102071.22;5074298;28;20400;-64
2022/04/14 09:44:08;;;;;;;17.20;12.35;;;23.10;99.90;;;23.02;52.54;102073.72;5056874;28;20052;-64
2022/04/14 09:46:38;;;;;;;20.67;11.85;;;22.80;99.90;;;23.20;52.84;102070.34;5074665;28;20119;-64
2022/04/14 09:49:10;;;;;;;19.92;11.60;;;22.90;99.90;;;23.30;52.31;102069.09;5074331;28;20048;-62
2022/04/14 09:51:41;;;;;;;18.48;11.57;;;23.10;99.90;;;23.56;52.47;102080.72;5074514;28;20469;-65
2022/04/14 09:54:14;;;;;;;21.98;12.32;;;23.30;99.90;;;23.46;51.57;102077.47;5074347;28;20040;-67
2022/04/14 09:56:48;;;;;;;16.88;12.00;;;23.30;99.90;;;23.19;50.90;102060.47;5074314;28;20064;-65
2022/04/14 09:59:20;;;;;;;19.63;12.18;;;23.20;99.90;;;23.28;52.04;102075.47;5073993;28;20037;-65
2022/04/14 10:01:49;;;;;;;17.77;11.75;;;23.00;99.90;;;23.21;51.59;102076.63;5074651;28;20052;-62
2022/04/14 10:04:33;;;;;;;16.50;10.87;;;23.00;99.90;;;22.88;52.91;102075.19;5056262;28;20047;-66
2022/04/14 10:07:07;;;;;;;13.82;11.75;;;22.70;99.90;;;23.25;52.58;102076.44;5074166;28;20045;-62
2022/04/14 10:09:39;;;;;;;17.75;12.15;;;23.00;99.90;;;23.32;51.12;102070.84;5074531;28;20048;-62